createdAt,value
2018-08-11T00:00:32.168Z,25.40
2018-08-11T00:03:00.613Z,25.40
2018-08-11T00:05:29.081Z,25.30
2018-08-11T00:07:57.679Z,25.40
2018-08-11T00:10:26.175Z,25.40
2018-08-11T00:12:54.724Z,25.30
2018-08-11T00:15:23.172Z,25.30
2018-08-11T00:17:51.611Z,25.30
2018-08-11T00:20:25.766Z,25.30
2018-08-11T00:22:54.440Z,25.20
2018-08-11T00:25:22.994Z,25.10
2018-08-11T00:27:51.376Z,25.10
2018-08-11T00:30:20.788Z,25.10
2018-08-11T00:32:49.235Z,25.10
2018-08-11T00:35:17.738Z,25.10
2018-08-11T00:37:46.444Z,25.00
2018-08-11T00:40:16.665Z,25.00
2018-08-11T00:42:46.261Z,25.00
2018-08-11T00:45:15.624Z,25.00
2018-08-11T00:47:44.362Z,25.00
2018-08-11T00:50:17.549Z,25.10
2018-08-11T00:52:45.941Z,25.00
2018-08-11T00:55:14.746Z,25.10
2018-08-11T00:57:43.380Z,25.10
2018-08-11T01:00:15.628Z,25.10
2018-08-11T01:02:44.281Z,25.10
2018-08-11T01:05:14.999Z,25.10
2018-08-11T01:07:44.029Z,25.10
2018-08-11T01:10:13.225Z,25.10
2018-08-11T01:12:42.511Z,25.10
2018-08-11T01:15:14.171Z,25.10
2018-08-11T01:17:42.602Z,25.00
2018-08-11T01:20:11.945Z,25.00
2018-08-11T01:22:41.361Z,25.00
2018-08-11T01:25:10.705Z,24.90
2018-08-11T01:27:39.047Z,25.00
2018-08-11T01:30:11.224Z,25.00
2018-08-11T01:32:39.621Z,25.00
2018-08-11T01:35:09.161Z,25.10
2018-08-11T01:37:38.497Z,25.10
2018-08-11T01:40:08.168Z,25.10
2018-08-11T01:42:36.725Z,25.10
2018-08-11T01:45:05.879Z,25.10
2018-08-11T01:47:34.295Z,25.10
2018-08-11T01:50:02.914Z,25.10
2018-08-11T01:52:31.413Z,25.10
2018-08-11T01:54:59.871Z,25.10
2018-08-11T01:57:28.314Z,25.10
2018-08-11T01:59:56.793Z,25.10
2018-08-11T02:02:25.152Z,25.00
2018-08-11T02:04:53.620Z,25.10
2018-08-11T02:07:22.036Z,25.10
2018-08-11T02:09:50.584Z,25.00
2018-08-11T02:12:18.961Z,25.00
2018-08-11T02:14:47.475Z,25.00
2018-08-11T02:17:16.130Z,25.10
2018-08-11T02:19:44.602Z,25.10
2018-08-11T02:22:13.070Z,25.10
2018-08-11T02:24:41.484Z,25.10
2018-08-11T02:27:09.856Z,25.10
2018-08-11T02:29:38.261Z,25.10
2018-08-11T02:32:06.910Z,25.10
2018-08-11T02:34:35.300Z,25.10
2018-08-11T02:37:03.879Z,25.10
2018-08-11T02:39:32.258Z,25.10
2018-08-11T02:42:00.698Z,25.10
2018-08-11T02:44:29.091Z,25.10
2018-08-11T02:47:00.471Z,25.20
2018-08-11T02:49:28.965Z,25.20
2018-08-11T02:51:57.402Z,25.20
2018-08-11T02:54:26.314Z,25.30
2018-08-11T02:56:54.871Z,25.20
2018-08-11T02:59:23.763Z,25.20
2018-08-11T03:01:53.443Z,25.10
2018-08-11T03:04:22.334Z,25.10
2018-08-11T03:06:51.077Z,25.00
2018-08-11T03:09:19.484Z,24.90
2018-08-11T03:11:48.041Z,24.90
2018-08-11T03:14:16.617Z,24.90
2018-08-11T03:16:45.152Z,24.90
2018-08-11T03:19:13.514Z,24.80
2018-08-11T03:21:41.972Z,24.80
2018-08-11T03:24:10.508Z,24.80
2018-08-11T03:26:39.206Z,24.70
2018-08-11T03:29:07.654Z,24.80
2018-08-11T03:31:36.226Z,24.90
2018-08-11T03:34:04.577Z,24.90
2018-08-11T03:36:32.962Z,24.90
2018-08-11T03:39:01.345Z,24.90
2018-08-11T03:41:29.841Z,24.90
2018-08-11T03:43:58.333Z,24.90
2018-08-11T03:46:26.668Z,24.90
2018-08-11T03:48:55.196Z,24.90
2018-08-11T03:51:23.906Z,24.90
2018-08-11T03:53:52.407Z,25.00
2018-08-11T03:56:20.821Z,24.90
2018-08-11T03:58:49.277Z,25.00
2018-08-11T04:01:18.063Z,25.00
2018-08-11T04:03:46.655Z,25.00
2018-08-11T04:06:15.058Z,24.90
2018-08-11T04:08:43.573Z,24.90
2018-08-11T04:11:11.943Z,24.90
2018-08-11T04:13:40.397Z,24.90
2018-08-11T04:16:09.100Z,24.90
2018-08-11T04:18:37.639Z,24.90
2018-08-11T04:21:06.061Z,24.80
2018-08-11T04:23:34.514Z,24.70
2018-08-11T04:26:02.981Z,24.60
2018-08-11T04:28:31.544Z,24.50
2018-08-11T04:30:59.972Z,24.40
2018-08-11T04:33:28.329Z,24.20
2018-08-11T04:35:56.768Z,24.20
2018-08-11T04:38:25.207Z,24.20
2018-08-11T04:40:53.584Z,24.20
2018-08-11T04:43:22.063Z,24.30
2018-08-11T04:45:50.575Z,24.40
2018-08-11T04:48:18.983Z,24.30
2018-08-11T04:50:47.320Z,24.40
2018-08-11T04:53:16.168Z,24.50
2018-08-11T04:55:47.512Z,24.50
2018-08-11T04:58:16.058Z,24.50
2018-08-11T05:00:44.667Z,24.50
2018-08-11T05:03:13.047Z,24.50
2018-08-11T05:05:41.480Z,24.60
2018-08-11T05:08:09.914Z,24.50
2018-08-11T05:10:38.332Z,24.40
2018-08-11T05:13:06.853Z,24.30
2018-08-11T05:15:35.256Z,24.30
2018-08-11T05:18:03.861Z,24.30
2018-08-11T05:20:32.376Z,24.30
2018-08-11T05:23:00.756Z,24.30
2018-08-11T05:25:29.237Z,24.40
2018-08-11T05:27:57.722Z,24.40
2018-08-11T05:30:27.102Z,24.50
2018-08-11T05:32:55.510Z,24.50
2018-08-11T05:35:23.980Z,24.50
2018-08-11T05:37:52.348Z,24.40
2018-08-11T05:40:20.856Z,24.50
2018-08-11T05:42:49.280Z,24.50
2018-08-11T05:45:17.728Z,24.50
2018-08-11T05:47:46.134Z,24.50
2018-08-11T05:50:14.588Z,24.60
2018-08-11T05:52:42.922Z,24.60
2018-08-11T05:55:11.354Z,24.60
2018-08-11T05:57:39.786Z,24.60
2018-08-11T06:00:09.469Z,24.60
2018-08-11T06:02:37.877Z,24.50
2018-08-11T06:05:06.714Z,24.50
2018-08-11T06:07:35.071Z,24.30
2018-08-11T06:10:03.671Z,23.90
2018-08-11T06:12:32.024Z,23.90
2018-08-11T06:15:00.554Z,24.00
2018-08-11T06:17:28.926Z,24.30
2018-08-11T06:19:57.272Z,24.40
2018-08-11T06:22:25.849Z,24.50
2018-08-11T06:24:54.276Z,24.60
2018-08-11T06:27:22.678Z,24.70
2018-08-11T06:29:51.303Z,24.90
2018-08-11T06:32:20.805Z,25.00
2018-08-11T06:34:49.168Z,25.00
2018-08-11T06:37:17.617Z,25.10
2018-08-11T06:39:46.013Z,25.20
2018-08-11T06:42:14.527Z,25.20
2018-08-11T06:44:42.956Z,25.30
2018-08-11T06:47:11.458Z,25.30
2018-08-11T06:49:39.798Z,25.40
2018-08-11T06:52:08.567Z,25.40
2018-08-11T06:54:37.265Z,25.40
2018-08-11T06:57:05.806Z,25.50
2018-08-11T06:59:34.272Z,25.50
2018-08-11T07:02:03.181Z,25.50
2018-08-11T07:04:31.602Z,25.50
2018-08-11T07:07:00.082Z,25.50
2018-08-11T07:09:28.502Z,25.60
2018-08-11T07:11:56.954Z,25.60
2018-08-11T07:14:25.489Z,25.60
2018-08-11T07:16:54.238Z,25.60
2018-08-11T07:19:22.719Z,25.60
2018-08-11T07:21:51.237Z,25.70
2018-08-11T07:24:19.615Z,25.70
2018-08-11T07:26:48.167Z,25.70
2018-08-11T07:29:16.590Z,25.70
2018-08-11T07:31:45.073Z,25.70
2018-08-11T07:34:13.601Z,25.70
2018-08-11T07:36:42.130Z,25.70
2018-08-11T07:39:10.833Z,25.70
2018-08-11T07:41:39.270Z,25.70
2018-08-11T07:44:07.721Z,25.80
2018-08-11T07:46:36.255Z,25.80
2018-08-11T07:49:04.657Z,25.80
2018-08-11T07:51:33.147Z,25.70
2018-08-11T07:54:01.533Z,25.80
2018-08-11T07:56:29.991Z,25.80
2018-08-11T07:58:58.511Z,25.80
2018-08-11T08:01:27.037Z,25.80
2018-08-11T08:03:55.581Z,25.80
2018-08-11T08:06:23.976Z,25.90
2018-08-11T08:08:52.705Z,25.80
2018-08-11T08:11:21.491Z,25.90
2018-08-11T08:13:50.090Z,25.90
2018-08-11T08:16:18.495Z,25.90
2018-08-11T08:18:47.133Z,25.80
2018-08-11T08:21:15.588Z,25.80
2018-08-11T08:23:44.055Z,25.90
2018-08-11T08:26:12.477Z,25.90
2018-08-11T08:28:40.839Z,25.80
2018-08-11T08:31:09.642Z,25.90
2018-08-11T08:33:38.076Z,25.90
2018-08-11T08:36:06.455Z,25.90
2018-08-11T08:38:34.889Z,25.90
2018-08-11T08:41:03.240Z,25.90
2018-08-11T08:44:35.179Z,25.90
2018-08-11T08:47:03.667Z,25.90
2018-08-11T08:49:32.217Z,25.90
2018-08-11T08:52:01.894Z,25.90
2018-08-11T08:54:30.330Z,25.90
2018-08-11T08:56:58.740Z,25.90
2018-08-11T08:59:27.247Z,25.90
2018-08-11T09:01:55.678Z,26.00
2018-08-11T09:04:24.172Z,25.90
2018-08-11T09:06:52.673Z,26.00
2018-08-11T09:09:21.101Z,26.00
2018-08-11T09:11:49.554Z,26.00
2018-08-11T09:14:17.983Z,26.00
2018-08-11T09:16:46.356Z,26.00
2018-08-11T09:19:14.689Z,26.00
2018-08-11T09:21:43.196Z,26.00
2018-08-11T09:24:11.626Z,26.00
2018-08-11T09:26:40.042Z,26.10
2018-08-11T09:29:08.564Z,26.00
2018-08-11T09:31:37.028Z,26.00
2018-08-11T09:34:05.432Z,26.00
2018-08-11T09:36:34.003Z,26.10
2018-08-11T09:39:02.402Z,26.00
2018-08-11T09:41:30.877Z,26.10
2018-08-11T09:43:59.282Z,26.10
2018-08-11T09:46:27.773Z,26.10
2018-08-11T09:48:56.152Z,26.10
2018-08-11T09:51:24.633Z,26.10
2018-08-11T09:53:53.039Z,26.10
2018-08-11T09:56:21.488Z,26.10
2018-08-11T09:58:50.062Z,26.10
2018-08-11T10:01:23.901Z,26.10
2018-08-11T10:03:52.466Z,26.10
2018-08-11T10:06:20.875Z,26.10
2018-08-11T10:08:49.298Z,26.10
2018-08-11T10:11:17.916Z,26.10
2018-08-11T10:13:46.373Z,26.10
2018-08-11T10:16:14.828Z,26.10
2018-08-11T10:18:43.314Z,26.10
2018-08-11T10:21:11.773Z,26.10
2018-08-11T10:23:40.275Z,26.10
2018-08-11T10:26:08.733Z,26.10
2018-08-11T10:28:37.226Z,26.10
2018-08-11T10:31:05.619Z,26.10
2018-08-11T10:33:34.084Z,26.10
2018-08-11T10:36:02.757Z,26.10
2018-08-11T10:38:31.179Z,26.10
2018-08-11T10:40:59.594Z,26.10
2018-08-11T10:43:28.157Z,26.10
2018-08-11T10:45:56.512Z,26.10
2018-08-11T10:48:24.908Z,26.20
2018-08-11T10:50:53.455Z,26.10
2018-08-11T10:53:22.025Z,26.20
2018-08-11T10:55:50.541Z,26.20
2018-08-11T10:58:19.063Z,26.10
2018-08-11T11:00:47.505Z,26.10
2018-08-11T11:03:15.892Z,26.10
2018-08-11T11:05:44.288Z,26.20
2018-08-11T11:08:12.882Z,26.10
2018-08-11T11:10:41.410Z,26.10
2018-08-11T11:13:09.817Z,26.10
2018-08-11T11:15:38.338Z,26.10
2018-08-11T11:18:06.902Z,26.10
2018-08-11T11:20:35.355Z,26.20
2018-08-11T11:23:03.856Z,26.20
2018-08-11T11:25:32.342Z,26.20
2018-08-11T11:28:00.888Z,26.10
2018-08-11T11:30:29.391Z,26.10
2018-08-11T11:32:57.875Z,26.10
2018-08-11T11:35:26.292Z,26.20
2018-08-11T11:37:54.702Z,26.20
2018-08-11T11:40:23.216Z,26.20
2018-08-11T11:42:51.806Z,26.20
2018-08-11T11:45:20.151Z,26.10
2018-08-11T11:47:48.703Z,26.20
2018-08-11T11:50:17.191Z,26.20
2018-08-11T11:52:45.641Z,26.20
2018-08-11T11:55:14.107Z,26.20
2018-08-11T11:57:42.612Z,26.20
2018-08-11T12:00:11.022Z,26.20
2018-08-11T12:02:39.404Z,26.20
2018-08-11T12:05:08.010Z,26.20
2018-08-11T12:07:36.542Z,26.20
2018-08-11T12:10:05.148Z,26.20
2018-08-11T12:12:33.540Z,26.20
2018-08-11T12:15:02.180Z,26.30
2018-08-11T12:17:30.542Z,26.20
2018-08-11T12:19:59.092Z,26.30
2018-08-11T12:22:27.739Z,26.30
2018-08-11T12:24:56.190Z,26.20
2018-08-11T12:27:24.614Z,26.20
2018-08-11T12:29:53.857Z,26.30
2018-08-11T12:32:22.276Z,26.20
2018-08-11T12:34:50.783Z,26.30
2018-08-11T12:37:19.174Z,26.30
2018-08-11T12:39:47.849Z,26.30
2018-08-11T12:42:16.313Z,26.20
2018-08-11T12:44:44.847Z,26.30
2018-08-11T12:47:13.678Z,26.30
2018-08-11T12:49:42.122Z,26.20
2018-08-11T12:52:10.668Z,26.30
2018-08-11T12:54:39.044Z,26.20
2018-08-11T12:57:07.414Z,26.20
2018-08-11T12:59:35.858Z,26.20
2018-08-11T13:02:04.315Z,26.20
2018-08-11T13:04:32.916Z,26.20
2018-08-11T13:07:01.360Z,26.20
2018-08-11T13:09:29.842Z,26.20
2018-08-11T13:11:58.424Z,26.20
2018-08-11T13:14:26.903Z,26.20
2018-08-11T13:16:55.322Z,26.20
2018-08-11T13:19:23.902Z,26.20
2018-08-11T13:21:52.302Z,26.20
2018-08-11T13:24:20.776Z,26.10
2018-08-11T13:26:49.268Z,26.10
2018-08-11T13:29:17.768Z,26.20
2018-08-11T13:31:46.121Z,26.20
2018-08-11T13:34:14.645Z,26.10
2018-08-11T13:36:42.976Z,26.10
2018-08-11T13:39:12.039Z,26.20
2018-08-11T13:41:43.584Z,26.20
2018-08-11T13:44:12.620Z,26.20
2018-08-11T13:46:41.112Z,26.20
2018-08-11T13:49:09.984Z,26.20
2018-08-11T13:51:38.751Z,26.20
2018-08-11T13:54:07.328Z,26.30
2018-08-11T13:56:36.561Z,26.20
2018-08-11T13:59:05.122Z,26.20
2018-08-11T14:01:33.597Z,26.20
2018-08-11T14:04:01.277Z,26.20
2018-08-11T14:06:29.164Z,26.20
2018-08-11T14:08:56.968Z,26.30
2018-08-11T14:11:24.734Z,26.30
2018-08-11T14:13:52.631Z,26.30
2018-08-11T14:16:20.390Z,26.30
2018-08-11T14:18:48.075Z,26.30
2018-08-11T14:21:15.723Z,26.30
2018-08-11T14:23:43.574Z,26.30
2018-08-11T14:26:11.217Z,26.30
2018-08-11T14:28:38.911Z,26.30
2018-08-11T14:31:06.589Z,26.30
2018-08-11T14:33:34.245Z,26.30
2018-08-11T14:36:01.914Z,26.30
2018-08-11T14:38:29.642Z,26.30
2018-08-11T14:40:57.249Z,26.30
2018-08-11T14:43:24.929Z,26.30
2018-08-11T14:45:52.690Z,26.30
2018-08-11T14:48:20.536Z,26.30
2018-08-11T14:50:48.311Z,26.40
2018-08-11T14:53:16.062Z,26.40
2018-08-11T14:55:43.738Z,26.40
2018-08-11T14:58:11.449Z,26.30
2018-08-11T15:00:39.226Z,26.40
2018-08-11T15:03:06.991Z,26.30
2018-08-11T15:05:34.756Z,26.40
2018-08-11T15:08:02.445Z,26.30
2018-08-11T15:10:30.077Z,26.30
2018-08-11T15:12:57.808Z,26.40
2018-08-11T15:15:25.488Z,26.40
2018-08-11T15:17:53.183Z,26.40
2018-08-11T15:20:20.872Z,26.40
2018-08-11T15:22:48.538Z,26.40
2018-08-11T15:25:16.186Z,26.40
2018-08-11T15:27:44.904Z,26.40
2018-08-11T15:30:12.811Z,26.40
2018-08-11T15:32:40.498Z,26.40
2018-08-11T15:35:09.132Z,26.40
2018-08-11T15:37:36.872Z,26.40
2018-08-11T15:40:05.017Z,26.40
2018-08-11T15:42:32.885Z,26.40
2018-08-11T15:45:00.521Z,26.40
2018-08-11T15:47:30.188Z,26.40
2018-08-11T15:49:57.895Z,26.40
2018-08-11T15:52:25.585Z,26.40
2018-08-11T15:54:53.369Z,26.40
2018-08-11T15:57:21.150Z,26.40
2018-08-11T15:59:48.923Z,26.40
2018-08-11T16:02:16.546Z,26.40
2018-08-11T16:04:44.301Z,26.40
2018-08-11T16:07:11.989Z,26.50
2018-08-11T16:09:39.721Z,26.50
2018-08-11T16:12:07.341Z,26.50
2018-08-11T16:14:35.025Z,26.50
2018-08-11T16:17:02.828Z,26.50
2018-08-11T16:19:30.570Z,26.50
2018-08-11T16:21:58.259Z,26.50
2018-08-11T16:24:25.886Z,26.50
2018-08-11T16:26:53.605Z,26.50
2018-08-11T16:29:21.364Z,26.50
2018-08-11T16:31:48.996Z,26.50
2018-08-11T16:34:16.673Z,26.50
2018-08-11T16:36:44.381Z,26.50
2018-08-11T16:39:12.030Z,26.50
2018-08-11T16:41:40.123Z,26.50
2018-08-11T16:44:07.783Z,26.40
2018-08-11T16:46:35.499Z,26.40
2018-08-11T16:49:03.134Z,26.40
2018-08-11T16:51:30.955Z,26.40
2018-08-11T16:53:59.250Z,26.40
2018-08-11T16:56:26.935Z,26.40
2018-08-11T16:58:54.595Z,26.40
2018-08-11T17:01:22.295Z,26.40
2018-08-11T17:03:50.037Z,26.40
2018-08-11T17:06:17.666Z,26.40
2018-08-11T17:08:45.461Z,26.40
2018-08-11T17:11:13.231Z,26.40
2018-08-11T17:13:40.829Z,26.40
2018-08-11T17:16:08.487Z,26.40
2018-08-11T17:18:36.125Z,26.40
2018-08-11T17:21:03.869Z,26.40
2018-08-11T17:23:31.569Z,26.40
2018-08-11T17:25:59.243Z,26.40
2018-08-11T17:28:26.873Z,26.30
2018-08-11T17:30:54.491Z,26.30
2018-08-11T17:33:22.109Z,26.30
2018-08-11T17:35:50.032Z,26.30
2018-08-11T17:38:17.859Z,26.40
2018-08-11T17:40:45.544Z,26.40
2018-08-11T17:43:13.331Z,26.30
2018-08-11T17:45:40.981Z,26.40
2018-08-11T17:48:09.113Z,26.30
2018-08-11T17:50:36.761Z,26.30
2018-08-11T17:53:04.433Z,26.30
2018-08-11T17:55:32.329Z,26.30
2018-08-11T17:57:59.987Z,26.40
2018-08-11T18:00:27.655Z,26.40
2018-08-11T18:02:55.350Z,26.30
2018-08-11T18:05:23.037Z,26.40
2018-08-11T18:07:50.675Z,26.40
2018-08-11T18:10:18.303Z,26.40
2018-08-11T18:12:46.132Z,26.40
2018-08-11T18:15:13.855Z,26.30
2018-08-11T18:17:41.516Z,26.30
2018-08-11T18:20:09.246Z,26.30
2018-08-11T18:22:36.915Z,26.30
2018-08-11T18:25:04.795Z,26.30
2018-08-11T18:27:32.437Z,26.30
2018-08-11T18:30:00.109Z,26.30
2018-08-11T18:32:27.758Z,26.30
2018-08-11T18:34:55.543Z,26.20
2018-08-11T18:37:23.231Z,26.30
2018-08-11T18:39:50.929Z,26.20
2018-08-11T18:42:18.641Z,26.20
2018-08-11T18:44:46.311Z,26.20
2018-08-11T18:47:14.021Z,26.20
2018-08-11T18:49:41.849Z,26.20
2018-08-11T18:52:09.683Z,26.20
2018-08-11T18:54:37.349Z,26.30
2018-08-11T18:57:05.292Z,26.20
2018-08-11T18:59:33.121Z,26.20
2018-08-11T19:02:00.809Z,26.20
2018-08-11T19:04:28.601Z,26.10
2018-08-11T19:06:56.265Z,26.20
2018-08-11T19:09:24.001Z,26.10
2018-08-11T19:11:51.819Z,26.10
2018-08-11T19:14:19.499Z,26.10
2018-08-11T19:16:47.100Z,26.10
2018-08-11T19:19:14.816Z,26.10
2018-08-11T19:21:42.449Z,26.10
2018-08-11T19:24:10.167Z,26.10
2018-08-11T19:26:37.894Z,26.10
2018-08-11T19:29:05.523Z,26.10
2018-08-11T19:31:33.224Z,26.10
2018-08-11T19:34:00.919Z,26.10
2018-08-11T19:36:28.570Z,26.10
2018-08-11T19:38:56.299Z,26.10
2018-08-11T19:41:23.929Z,26.10
2018-08-11T19:43:51.603Z,26.10
2018-08-11T19:46:19.257Z,26.00
2018-08-11T19:48:47.010Z,26.00
2018-08-11T19:51:14.677Z,26.00
2018-08-11T19:53:42.413Z,26.00
2018-08-11T19:56:10.170Z,26.00
2018-08-11T19:58:37.798Z,26.00
2018-08-11T20:01:05.504Z,25.90
2018-08-11T20:03:33.293Z,25.90
2018-08-11T20:06:00.929Z,25.90
2018-08-11T20:08:28.641Z,25.90
2018-08-11T20:10:56.547Z,25.90
2018-08-11T20:13:24.213Z,25.90
2018-08-11T20:15:51.885Z,25.90
2018-08-11T20:18:19.510Z,25.90
2018-08-11T20:20:47.237Z,25.80
2018-08-11T20:23:14.907Z,25.80
2018-08-11T20:25:43.047Z,25.80
2018-08-11T20:28:11.546Z,25.80
2018-08-11T20:30:39.195Z,25.80
2018-08-11T20:33:06.889Z,25.70
2018-08-11T20:35:34.627Z,25.80
2018-08-11T20:38:02.253Z,25.70
2018-08-11T20:40:30.000Z,25.70
2018-08-11T20:42:57.715Z,25.70
2018-08-11T20:45:25.360Z,25.70
2018-08-11T20:47:53.059Z,25.70
2018-08-11T20:50:20.738Z,25.70
2018-08-11T20:52:48.387Z,25.70
2018-08-11T20:55:16.137Z,25.70
2018-08-11T20:57:43.822Z,25.60
2018-08-11T21:00:12.486Z,25.60
2018-08-11T21:02:40.415Z,25.70
2018-08-11T21:05:09.536Z,25.70
2018-08-11T21:07:38.028Z,25.60
2018-08-11T21:10:06.446Z,25.60
2018-08-11T21:12:34.322Z,25.50
2018-08-11T21:15:02.050Z,25.50
2018-08-11T21:17:29.734Z,25.50
2018-08-11T21:19:57.365Z,25.50
2018-08-11T21:22:25.141Z,25.40
2018-08-11T21:24:52.797Z,25.40
2018-08-11T21:27:20.641Z,25.40
2018-08-11T21:29:48.371Z,25.30
2018-08-11T21:32:16.352Z,25.30
2018-08-11T21:34:44.044Z,25.30
2018-08-11T21:37:11.705Z,25.20
2018-08-11T21:39:39.487Z,25.20
2018-08-11T21:42:07.172Z,25.20
2018-08-11T21:44:34.805Z,25.20
2018-08-11T21:47:02.479Z,25.20
2018-08-11T21:49:30.141Z,25.10
2018-08-11T21:51:57.799Z,25.10
2018-08-11T21:54:25.623Z,25.10
2018-08-11T21:56:53.411Z,25.10
2018-08-11T21:59:21.284Z,25.00
2018-08-11T22:01:48.916Z,25.00
2018-08-11T22:04:16.679Z,25.00
2018-08-11T22:06:44.391Z,24.90
2018-08-11T22:09:13.648Z,24.90
2018-08-11T22:11:41.424Z,24.90
2018-08-11T22:14:10.547Z,24.90
2018-08-11T22:16:38.278Z,24.90
2018-08-11T22:19:06.259Z,24.90
2018-08-11T22:21:34.081Z,25.00
2018-08-11T22:24:01.809Z,25.00
2018-08-11T22:26:29.553Z,24.90
2018-08-11T22:28:57.252Z,25.00
2018-08-11T22:31:24.881Z,25.00
2018-08-11T22:33:52.548Z,25.00
2018-08-11T22:36:20.272Z,25.10
2018-08-11T22:38:47.892Z,25.10
2018-08-11T22:41:15.538Z,25.10
2018-08-11T22:43:43.252Z,25.10
2018-08-11T22:46:10.839Z,25.00
2018-08-11T22:48:38.435Z,25.00
2018-08-11T22:51:06.214Z,25.00
2018-08-11T22:53:33.862Z,24.90
2018-08-11T22:56:01.556Z,24.90
2018-08-11T22:58:29.253Z,24.90
2018-08-11T23:00:56.954Z,24.50
2018-08-11T23:03:24.604Z,24.60
2018-08-11T23:05:52.278Z,24.70
2018-08-11T23:08:19.980Z,24.70
2018-08-11T23:10:47.838Z,24.80
2018-08-11T23:13:15.738Z,24.90
2018-08-11T23:15:43.408Z,24.80
2018-08-11T23:18:11.148Z,24.80
2018-08-11T23:20:38.918Z,24.80
2018-08-11T23:23:06.618Z,24.80
2018-08-11T23:25:34.294Z,24.80
2018-08-11T23:28:01.887Z,24.80
2018-08-11T23:30:29.588Z,24.90
2018-08-11T23:32:57.220Z,24.90
2018-08-11T23:35:24.964Z,24.90
2018-08-11T23:37:52.656Z,25.00
2018-08-11T23:40:20.294Z,25.00
2018-08-11T23:42:47.968Z,25.00
2018-08-11T23:45:16.522Z,25.00
2018-08-11T23:47:44.264Z,25.00
2018-08-11T23:50:12.750Z,25.00
2018-08-11T23:52:41.327Z,24.90
2018-08-11T23:55:09.475Z,24.90
2018-08-11T23:57:37.191Z,24.90
